createdAt,value
2022-09-04T00:01:10.811Z,100.00
2022-09-04T00:04:12.540Z,100.00
2022-09-04T00:07:23.265Z,100.00
2022-09-04T00:10:36.533Z,100.00
2022-09-04T00:13:56.770Z,100.00
2022-09-04T00:17:04.013Z,100.00
2022-09-04T00:20:17.722Z,100.00
2022-09-04T00:23:25.386Z,100.00
2022-09-04T00:26:36.682Z,100.00
2022-09-04T00:30:11.589Z,100.00
2022-09-04T00:33:30.281Z,100.00
2022-09-04T00:36:32.259Z,100.00
2022-09-04T00:40:12.199Z,100.00
2022-09-04T00:43:29.192Z,100.00
2022-09-04T00:47:06.064Z,100.00
2022-09-04T00:50:16.303Z,100.00
2022-09-04T00:53:26.950Z,100.00
2022-09-04T00:57:00.022Z,100.00
2022-09-04T01:00:17.180Z,100.00
2022-09-04T01:03:30.837Z,100.00
2022-09-04T01:06:49.343Z,100.00
2022-09-04T01:10:06.635Z,100.00
2022-09-04T01:13:18.342Z,100.00
2022-09-04T01:16:41.759Z,100.00
2022-09-04T01:19:55.778Z,100.00
2022-09-04T01:23:35.276Z,100.00
2022-09-04T01:26:45.707Z,100.00
2022-09-04T01:30:08.060Z,100.00
2022-09-04T01:33:25.678Z,100.00
2022-09-04T01:41:24.828Z,100.00
2022-09-04T01:44:26.972Z,100.00
2022-09-04T01:47:43.284Z,100.00
2022-09-04T01:50:51.408Z,100.00
2022-09-04T01:54:31.600Z,100.00
2022-09-04T01:57:57.750Z,100.00
2022-09-04T02:01:28.364Z,100.00
2022-09-04T02:04:50.072Z,100.00
2022-09-04T02:08:12.325Z,100.00
2022-09-04T02:11:28.071Z,100.00
2022-09-04T02:14:38.105Z,100.00
2022-09-04T02:17:58.847Z,100.00
2022-09-04T02:21:07.808Z,100.00
2022-09-04T02:24:30.358Z,100.00
2022-09-04T02:27:41.916Z,100.00
2022-09-04T02:30:55.671Z,100.00
2022-09-04T02:34:16.713Z,100.00
2022-09-04T02:37:34.260Z,100.00
2022-09-04T02:40:49.924Z,100.00
2022-09-04T02:44:21.065Z,100.00
2022-09-04T02:47:41.942Z,100.00
2022-09-04T02:51:16.626Z,100.00
2022-09-04T02:54:43.958Z,100.00
2022-09-04T02:57:50.372Z,100.00
2022-09-04T03:01:10.969Z,100.00
2022-09-04T03:04:19.334Z,100.00
2022-09-04T03:07:25.711Z,100.00
2022-09-04T03:10:36.740Z,100.00
2022-09-04T03:13:51.925Z,100.00
2022-09-04T03:17:12.296Z,100.00
2022-09-04T03:20:43.538Z,100.00
2022-09-04T03:24:22.120Z,100.00
2022-09-04T03:27:24.207Z,100.00
2022-09-04T03:30:27.578Z,100.00
2022-09-04T03:33:42.906Z,100.00
2022-09-04T03:37:20.209Z,100.00
2022-09-04T03:40:28.000Z,100.00
2022-09-04T03:43:38.719Z,100.00
2022-09-04T03:47:01.347Z,100.00
2022-09-04T03:50:15.323Z,100.00
2022-09-04T03:54:08.273Z,100.00
2022-09-04T03:57:41.289Z,100.00
2022-09-04T04:00:52.064Z,100.00
2022-09-04T04:04:01.433Z,100.00
2022-09-04T04:07:14.375Z,100.00
2022-09-04T04:10:33.637Z,100.00
2022-09-04T04:13:59.981Z,100.00
2022-09-04T04:17:01.720Z,100.00
2022-09-04T04:20:23.081Z,100.00
2022-09-04T04:23:58.471Z,100.00
2022-09-04T04:27:39.087Z,100.00
2022-09-04T04:30:50.349Z,100.00
2022-09-04T04:34:19.887Z,100.00
2022-09-04T04:37:46.704Z,100.00
2022-09-04T04:41:15.506Z,100.00
2022-09-04T04:44:43.904Z,100.00
2022-09-04T04:48:03.986Z,100.00
2022-09-04T04:51:24.425Z,100.00
2022-09-04T04:54:53.559Z,100.00
2022-09-04T04:58:17.506Z,100.00
2022-09-04T05:01:39.248Z,100.00
2022-09-04T05:05:02.493Z,100.00
2022-09-04T05:08:12.579Z,100.00
2022-09-04T05:11:45.290Z,100.00
2022-09-04T05:15:03.531Z,100.00
2022-09-04T05:18:17.417Z,100.00
2022-09-04T05:21:54.641Z,100.00
2022-09-04T05:25:24.417Z,100.00
2022-09-04T05:28:58.396Z,100.00
2022-09-04T05:32:13.722Z,100.00
2022-09-04T05:35:39.589Z,100.00
2022-09-04T05:39:27.901Z,100.00
2022-09-04T05:42:48.758Z,100.00
2022-09-04T05:46:04.826Z,100.00
2022-09-04T05:49:28.702Z,100.00
2022-09-04T05:53:08.021Z,100.00
2022-09-04T05:56:46.927Z,100.00
2022-09-04T06:00:12.708Z,100.00
2022-09-04T06:03:27.143Z,100.00
2022-09-04T06:06:59.832Z,100.00
2022-09-04T06:10:13.841Z,100.00
2022-09-04T06:13:21.515Z,100.00
2022-09-04T06:16:52.363Z,100.00
2022-09-04T06:20:14.703Z,100.00
2022-09-04T06:23:32.880Z,100.00
2022-09-04T06:26:44.430Z,100.00
2022-09-04T06:30:04.679Z,100.00
2022-09-04T06:33:38.677Z,100.00
2022-09-04T06:36:55.271Z,100.00
2022-09-04T06:40:09.216Z,100.00
2022-09-04T06:43:24.622Z,100.00
2022-09-04T06:46:43.108Z,100.00
2022-09-04T06:50:06.006Z,100.00
2022-09-04T06:53:20.115Z,100.00
2022-09-04T06:56:24.393Z,100.00
2022-09-04T06:59:41.230Z,100.00
2022-09-04T07:03:04.500Z,100.00
2022-09-04T07:06:17.752Z,100.00
2022-09-04T07:09:35.002Z,100.00
2022-09-04T07:12:45.800Z,100.00
2022-09-04T07:16:43.207Z,100.00
2022-09-04T07:20:03.466Z,100.00
2022-09-04T07:23:27.666Z,100.00
2022-09-04T07:26:47.958Z,100.00
2022-09-04T07:30:02.226Z,100.00
2022-09-04T07:33:32.291Z,100.00
2022-09-04T07:36:44.886Z,100.00
2022-09-04T07:40:10.069Z,100.00
2022-09-04T07:43:36.930Z,100.00
2022-09-04T07:47:00.342Z,100.00
2022-09-04T07:50:22.140Z,100.00
2022-09-04T07:53:41.671Z,100.00
2022-09-04T07:57:07.832Z,100.00
2022-09-04T08:00:18.052Z,100.00
2022-09-04T08:03:32.845Z,100.00
2022-09-04T08:06:50.040Z,100.00
2022-09-04T08:10:32.771Z,100.00
2022-09-04T08:14:11.912Z,100.00
2022-09-04T08:17:33.245Z,99.83
2022-09-04T08:21:03.112Z,99.16
2022-09-04T08:24:10.733Z,99.16
2022-09-04T08:27:23.251Z,99.25
2022-09-04T08:30:29.719Z,98.58
2022-09-04T08:33:54.058Z,99.16
2022-09-04T08:36:55.639Z,98.85
2022-09-04T08:40:15.411Z,98.20
2022-09-04T08:43:55.041Z,96.59
2022-09-04T08:47:10.334Z,96.68
2022-09-04T08:50:27.566Z,96.27
2022-09-04T08:54:02.397Z,95.43
2022-09-04T08:57:15.524Z,94.42
2022-09-04T09:00:29.091Z,95.33
2022-09-04T09:03:46.160Z,94.71
2022-09-04T09:06:47.732Z,93.92
2022-09-04T09:09:57.567Z,93.23
2022-09-04T09:13:14.160Z,92.20
2022-09-04T09:16:19.915Z,92.51
2022-09-04T09:19:58.713Z,91.84
2022-09-04T09:23:18.400Z,91.77
2022-09-04T09:26:29.584Z,92.47
2022-09-04T09:30:02.216Z,91.99
2022-09-04T09:33:12.807Z,90.61
2022-09-04T09:36:24.988Z,89.03
2022-09-04T09:39:45.889Z,87.93
2022-09-04T09:42:59.826Z,88.35
2022-09-04T09:46:31.317Z,88.51
2022-09-04T09:50:03.723Z,86.74
2022-09-04T09:53:46.893Z,85.68
2022-09-04T09:57:33.250Z,84.59
2022-09-04T10:00:38.624Z,82.90
2022-09-04T10:04:10.872Z,81.11
2022-09-04T10:07:22.685Z,81.85
2022-09-04T10:10:43.050Z,81.65
2022-09-04T10:14:25.259Z,81.00
2022-09-04T10:17:52.023Z,81.61
2022-09-04T10:21:46.356Z,79.77
2022-09-04T10:25:21.587Z,79.19
2022-09-04T10:28:35.462Z,77.19
2022-09-04T10:32:04.681Z,76.11
2022-09-04T10:35:27.483Z,76.54
2022-09-04T10:38:35.142Z,77.55
2022-09-04T10:41:58.675Z,73.64
2022-09-04T10:45:17.066Z,72.15
2022-09-04T10:48:38.265Z,72.24
2022-09-04T10:52:05.641Z,71.18
2022-09-04T10:55:24.302Z,70.98
2022-09-04T10:58:54.607Z,69.23
2022-09-04T11:02:33.935Z,69.44
2022-09-04T11:05:41.455Z,68.77
2022-09-04T11:08:58.629Z,67.56
2022-09-04T11:12:18.984Z,66.60
2022-09-04T11:16:09.961Z,64.08
2022-09-04T11:19:28.744Z,63.33
2022-09-04T11:22:46.470Z,63.68
2022-09-04T11:26:23.591Z,64.97
2022-09-04T11:30:02.635Z,63.90
2022-09-04T11:33:28.311Z,63.58
2022-09-04T11:36:57.283Z,64.23
2022-09-04T11:40:17.696Z,62.43
2022-09-04T11:43:37.893Z,61.53
2022-09-04T11:47:06.708Z,60.21
2022-09-04T11:50:40.855Z,59.73
2022-09-04T11:54:07.231Z,56.42
2022-09-04T11:57:29.924Z,57.38
2022-09-04T12:00:59.381Z,58.95
2022-09-04T12:04:31.919Z,58.83
2022-09-04T12:07:52.016Z,56.77
2022-09-04T12:11:14.958Z,57.39
2022-09-04T12:14:23.129Z,57.00
2022-09-04T12:17:34.567Z,57.15
2022-09-04T12:20:59.147Z,55.52
2022-09-04T12:24:15.156Z,56.66
2022-09-04T12:27:51.262Z,56.23
2022-09-04T12:31:17.290Z,55.15
2022-09-04T12:34:19.310Z,55.81
2022-09-04T12:37:45.107Z,53.25
2022-09-04T12:41:11.954Z,51.24
2022-09-04T12:44:25.803Z,51.15
2022-09-04T12:47:33.176Z,49.45
2022-09-04T12:50:39.858Z,48.73
2022-09-04T12:54:13.939Z,49.63
2022-09-04T12:57:18.414Z,48.76
2022-09-04T13:00:20.180Z,48.31
2022-09-04T13:03:31.028Z,46.76
2022-09-04T13:06:54.409Z,45.76
2022-09-04T13:10:17.971Z,46.19
2022-09-04T13:13:48.313Z,45.80
2022-09-04T13:16:57.229Z,47.90
2022-09-04T13:20:14.052Z,46.94
2022-09-04T13:23:35.648Z,46.81
2022-09-04T13:26:57.586Z,47.82
2022-09-04T13:30:18.528Z,44.58
2022-09-04T13:33:41.141Z,44.41
2022-09-04T13:37:09.650Z,44.91
2022-09-04T13:40:17.445Z,44.07
2022-09-04T13:43:37.918Z,44.56
2022-09-04T13:47:10.067Z,45.46
2022-09-04T13:50:12.120Z,44.61
2022-09-04T13:53:20.449Z,43.76
2022-09-04T13:56:34.195Z,43.15
2022-09-04T13:59:38.311Z,43.85
2022-09-04T14:02:41.892Z,44.20
2022-09-04T14:05:44.364Z,42.42
2022-09-04T14:09:04.240Z,41.58
2022-09-04T14:12:15.634Z,41.18
2022-09-04T14:16:03.670Z,40.92
2022-09-04T14:19:20.640Z,40.35
2022-09-04T14:22:38.866Z,39.29
2022-09-04T14:26:07.291Z,39.11
2022-09-04T14:30:00.903Z,39.11
2022-09-04T14:33:21.636Z,38.88
2022-09-04T14:36:49.547Z,38.66
2022-09-04T14:40:03.717Z,37.99
2022-09-04T14:43:37.969Z,37.04
2022-09-04T14:46:51.415Z,35.02
2022-09-04T14:50:01.334Z,34.61
2022-09-04T14:53:07.625Z,34.24
2022-09-04T14:56:12.385Z,34.50
2022-09-04T14:59:44.476Z,34.07
2022-09-04T15:03:15.288Z,33.38
2022-09-04T15:06:29.049Z,34.42
2022-09-04T15:09:41.106Z,33.15
2022-09-04T15:12:52.380Z,32.63
2022-09-04T15:16:16.072Z,31.78
2022-09-04T15:19:28.233Z,32.61
2022-09-04T15:22:44.522Z,32.05
2022-09-04T15:25:59.193Z,32.72
2022-09-04T15:29:08.786Z,32.21
2022-09-04T15:32:13.957Z,31.79
2022-09-04T15:35:32.780Z,31.80
2022-09-04T15:38:37.328Z,32.07
2022-09-04T15:41:49.973Z,30.66
2022-09-04T15:44:52.118Z,31.29
2022-09-04T15:48:33.080Z,30.61
2022-09-04T15:51:47.192Z,31.09
2022-09-04T15:55:07.435Z,31.79
2022-09-04T15:58:30.264Z,31.65
2022-09-04T16:01:43.449Z,31.57
2022-09-04T16:04:53.658Z,31.20
2022-09-04T16:08:31.018Z,31.54
2022-09-04T16:11:45.265Z,32.09
2022-09-04T16:14:56.279Z,32.79
2022-09-04T16:18:08.779Z,33.50
2022-09-04T16:21:52.039Z,33.28
2022-09-04T16:25:19.292Z,33.51
2022-09-04T16:28:46.426Z,33.01
2022-09-04T16:31:53.742Z,33.49
2022-09-04T16:35:05.536Z,33.50
2022-09-04T16:38:14.928Z,35.76
2022-09-04T16:41:31.474Z,35.58
2022-09-04T16:44:39.396Z,35.68
2022-09-04T16:47:40.962Z,36.33
2022-09-04T16:51:00.058Z,36.76
2022-09-04T16:54:37.275Z,36.27
2022-09-04T16:57:53.848Z,36.44
2022-09-04T17:00:59.985Z,37.36
2022-09-04T17:04:27.944Z,37.60
2022-09-04T17:07:37.383Z,38.52
2022-09-04T17:11:14.288Z,40.27
2022-09-04T17:14:22.248Z,41.98
2022-09-04T17:17:30.707Z,43.42
2022-09-04T17:22:07.202Z,45.19
2022-09-04T17:29:04.368Z,45.40
2022-09-04T17:29:17.137Z,47.28
2022-09-04T17:31:29.739Z,47.46
2022-09-04T17:40:32.699Z,48.99
2022-09-04T17:40:43.590Z,50.29
2022-09-04T17:41:57.012Z,51.77
2022-09-04T17:45:09.503Z,51.76
2022-09-04T17:48:25.013Z,53.91
2022-09-04T17:51:32.050Z,53.76
2022-09-04T17:54:41.258Z,55.06
2022-09-04T17:58:40.647Z,57.36
2022-09-04T18:01:45.046Z,57.08
2022-09-04T18:04:54.304Z,58.74
2022-09-04T18:08:19.568Z,59.88
2022-09-04T18:11:34.794Z,60.71
2022-09-04T18:15:32.809Z,61.93
2022-09-04T18:18:45.103Z,62.17
2022-09-04T18:22:26.192Z,63.42
2022-09-04T18:25:40.918Z,63.72
2022-09-04T18:30:42.883Z,64.89
2022-09-04T18:37:08.057Z,65.58
2022-09-04T18:37:16.620Z,66.59
2022-09-04T18:41:20.837Z,66.98
2022-09-04T18:50:24.308Z,67.23
2022-09-04T18:50:44.115Z,67.63
2022-09-04T18:51:31.172Z,68.02
2022-09-04T18:54:48.252Z,68.89
2022-09-04T18:58:18.599Z,69.17
2022-09-04T19:01:45.115Z,70.25
2022-09-04T19:04:58.689Z,70.25
2022-09-04T19:08:03.426Z,70.14
2022-09-04T19:11:21.311Z,70.63
2022-09-04T19:14:34.431Z,71.20
2022-09-04T19:17:40.351Z,71.52
2022-09-04T19:20:50.687Z,72.42
2022-09-04T19:24:23.836Z,73.12
2022-09-04T19:28:02.875Z,73.81
2022-09-04T19:31:15.411Z,74.03
2022-09-04T19:34:29.047Z,74.65
2022-09-04T19:40:31.950Z,75.11
2022-09-04T19:46:04.237Z,75.16
2022-09-04T19:46:13.088Z,75.96
2022-09-04T19:48:20.623Z,76.95
2022-09-04T19:53:30.810Z,77.35
2022-09-04T19:55:24.768Z,77.67
2022-09-04T19:58:34.853Z,78.08
2022-09-04T20:02:03.056Z,78.97
2022-09-04T20:05:16.976Z,78.69
2022-09-04T20:08:35.345Z,79.56
2022-09-04T20:11:46.562Z,79.47
2022-09-04T20:15:20.816Z,80.06
2022-09-04T20:18:40.744Z,80.10
2022-09-04T20:21:51.059Z,80.07
2022-09-04T20:25:08.070Z,80.77
2022-09-04T20:28:36.472Z,81.44
2022-09-04T20:31:45.030Z,81.30
2022-09-04T20:34:53.304Z,81.29
2022-09-04T20:38:03.505Z,81.39
2022-09-04T20:41:30.421Z,82.08
2022-09-04T20:45:20.350Z,82.56
2022-09-04T20:52:45.960Z,82.48
2022-09-04T20:52:57.427Z,82.76
2022-09-04T20:55:20.268Z,83.45
2022-09-04T21:03:13.511Z,83.50
2022-09-04T21:03:17.934Z,84.49
2022-09-04T21:06:24.432Z,83.75
2022-09-04T21:10:01.779Z,84.64
2022-09-04T21:13:17.712Z,84.21
2022-09-04T21:16:46.326Z,84.79
2022-09-04T21:20:23.445Z,85.53
2022-09-04T21:23:35.663Z,85.29
2022-09-04T21:27:08.508Z,85.75
2022-09-04T21:30:58.386Z,85.60
2022-09-04T21:34:18.458Z,85.79
2022-09-04T21:37:40.322Z,85.86
2022-09-04T21:40:51.435Z,85.87
2022-09-04T21:44:00.368Z,85.98
2022-09-04T21:47:08.634Z,86.34
2022-09-04T21:50:49.126Z,86.68
2022-09-04T21:54:23.342Z,86.77
2022-09-04T22:02:30.949Z,87.24
2022-09-04T22:02:37.502Z,87.42
2022-09-04T22:05:18.485Z,87.35
2022-09-04T22:13:27.245Z,87.28
2022-09-04T22:13:41.776Z,87.66
2022-09-04T22:16:15.975Z,88.11
2022-09-04T22:19:27.028Z,87.96
2022-09-04T22:23:11.911Z,88.22
2022-09-04T22:26:54.149Z,88.40
2022-09-04T22:30:11.685Z,88.13
2022-09-04T22:34:14.933Z,88.85
2022-09-04T22:37:33.986Z,88.52
2022-09-04T22:40:56.768Z,88.66
2022-09-04T22:44:36.424Z,89.47
2022-09-04T22:48:09.083Z,89.24
2022-09-04T22:51:16.761Z,89.10
2022-09-04T22:54:40.625Z,89.25
2022-09-04T22:57:54.377Z,89.12
2022-09-04T23:01:08.249Z,88.98
2022-09-04T23:04:46.061Z,89.41
2022-09-04T23:13:46.135Z,89.59
2022-09-04T23:14:00.479Z,89.52
2022-09-04T23:15:09.230Z,89.77
2022-09-04T23:24:50.456Z,89.88
2022-09-04T23:26:38.916Z,89.74
2022-09-04T23:26:58.514Z,90.09
2022-09-04T23:30:25.188Z,90.41
2022-09-04T23:33:54.132Z,90.78
2022-09-04T23:37:01.958Z,90.82
2022-09-04T23:40:15.780Z,90.88
2022-09-04T23:43:36.170Z,90.88
2022-09-04T23:46:43.915Z,90.74
2022-09-04T23:49:48.563Z,90.80
2022-09-04T23:53:23.435Z,91.18
2022-09-04T23:56:34.336Z,91.19
2022-09-04T23:59:58.446Z,91.87
